Time;durP1;ratioP1;P1;durP2;ratioP2;P2;SDS_P1;SDS_P2;PMS_P1;PMS_P2;Temp;Humidity;BMP_temperature;BMP_pressure;BME280_temperature;BME280_humidity;BME280_pressure;Samples;Min_cycle;Max_cycle;Signal;HPM_P1;HPM_P2
2023/03/15 00:09:00;;;;;;;9.45;2.70;;;;;;;2.30;72.31;99222.16;30622654;28;96680;-69
2023/03/15 00:24:01;;;;;;;4.70;2.00;;;;;;;2.18;72.91;99239.03;30621081;28;96799;-68
2023/03/15 00:39:02;;;;;;;4.50;2.17;;;;;;;2.10;73.10;99286.19;30620247;28;96736;-69
2023/03/15 00:54:02;;;;;;;6.40;2.60;;;;;;;1.98;73.01;99299.47;30617849;28;96632;-68
2023/03/15 01:09:04;;;;;;;6.78;2.97;;;;;;;1.86;72.79;99325.03;30617320;28;96746;-68
2023/03/15 01:24:05;;;;;;;3.33;1.80;;;;;;;1.95;72.99;99326.00;30615105;28;96585;-69
2023/03/15 01:39:05;;;;;;;8.02;1.63;;;;;;;1.95;72.43;99352.25;30628566;28;97829;-68
2023/03/15 01:54:16;;;;;;;6.07;1.15;;;;;;;1.82;72.29;99381.41;30612844;28;96621;-69
2023/03/15 02:09:18;;;;;;;3.20;0.88;;;;;;;1.65;71.72;99424.06;30612670;28;96667;-69
2023/03/15 02:24:33;;;;;;;8.95;1.60;;;;;;;1.67;71.79;99448.41;30611250;28;96600;-68
2023/03/15 02:39:34;;;;;;;3.22;1.05;;;;;;;1.64;71.75;99467.88;30610488;28;97375;-69
2023/03/15 02:54:35;;;;;;;3.65;0.88;;;;;;;1.55;71.64;99492.25;30628354;28;96538;-68
2023/03/15 03:09:35;;;;;;;4.10;1.00;;;;;;;1.47;71.92;99494.72;30628371;28;96707;-68
2023/03/15 03:24:36;;;;;;;5.65;1.30;;;;;;;1.34;71.70;99523.78;30626892;28;96631;-68
2023/03/15 03:39:36;;;;;;;4.30;1.30;;;;;;;1.32;71.65;99537.00;30625370;28;96555;-69
2023/03/15 03:54:36;;;;;;;6.80;1.30;;;;;;;1.33;71.27;99546.56;30622232;28;96614;-69
2023/03/15 04:09:38;;;;;;;7.43;1.50;;;;;;;1.18;71.10;99561.75;30620876;28;97185;-68
2023/03/15 04:24:38;;;;;;;3.78;1.10;;;;;;;1.05;71.44;99576.00;30619498;28;96749;-68
2023/03/15 04:39:41;;;;;;;2.65;1.13;;;;;;;1.04;71.02;99619.78;30617043;28;96618;-68
2023/03/15 04:54:41;;;;;;;8.82;1.27;;;;;;;1.00;71.27;99615.72;30617073;28;96647;-67
2023/03/15 05:09:45;;;;;;;5.53;1.08;;;;;;;0.92;71.10;99642.56;30608802;28;97520;-68
2023/03/15 05:24:45;;;;;;;7.35;1.13;;;;;;;0.86;71.31;99656.16;30584619;28;97043;-67
2023/03/15 05:39:45;;;;;;;4.90;2.58;;;;;;;0.88;71.15;99698.00;30608183;28;97727;-68
2023/03/15 05:54:46;;;;;;;6.10;1.42;;;;;;;1.11;71.17;99735.56;30607255;28;96663;-67
2023/03/15 06:09:46;;;;;;;7.72;2.40;;;;;;;1.37;70.74;99751.00;30605768;28;96660;-68
2023/03/15 06:24:47;;;;;;;5.45;1.23;;;;;;;1.86;70.25;99765.47;30623482;28;97767;-65
2023/03/15 06:39:49;;;;;;;2.35;1.48;;;;;;;2.55;69.10;99782.59;30624666;28;97360;-66
2023/03/15 06:54:49;;;;;;;4.55;1.45;;;;;;;3.55;67.76;99802.16;30626259;28;97314;-65
2023/03/15 07:09:49;;;;;;;8.02;2.00;;;;;;;4.56;66.28;99815.16;30622806;28;97077;-66
2023/03/15 07:24:50;;;;;;;6.70;1.75;;;;;;;4.93;64.42;99817.03;30621333;28;97151;-64
2023/03/15 07:39:50;;;;;;;6.20;2.13;;;;;;;6.46;63.90;99860.63;30620782;28;96661;-64
2023/03/15 07:54:51;;;;;;;4.15;1.40;;;;;;;7.41;59.31;99874.06;30619991;28;96805;-64
2023/03/15 08:09:51;;;;;;;5.35;1.35;;;;;;;8.33;57.08;99897.28;30618627;28;96689;-65
2023/03/15 08:24:52;;;;;;;4.40;1.63;;;;;;;8.83;53.34;99902.66;30618135;28;96944;-64
2023/03/15 08:39:59;;;;;;;7.03;1.45;;;;;;;8.66;51.67;99910.63;30616151;28;96743;-64
2023/03/15 08:55:00;;;;;;;4.30;1.47;;;;;;;9.19;50.34;99932.38;30615857;28;96735;-65
2023/03/15 09:10:00;;;;;;;9.95;2.15;;;;;;;9.86;48.52;99949.84;30613763;28;96991;-65
2023/03/15 09:25:00;;;;;;;7.93;1.52;;;;;;;10.15;47.66;99959.88;30612494;28;96610;-68
2023/03/15 09:40:01;;;;;;;7.20;1.25;;;;;;;11.65;44.83;99966.66;30612616;28;97007;-67
2023/03/15 09:55:22;;;;;;;4.68;1.63;;;;;;;12.49;39.93;99964.69;30609707;28;97400;-65
2023/03/15 10:10:31;;;;;;;8.63;1.37;;;;;;;16.34;33.38;99954.94;30607930;28;96802;-65
2023/03/15 10:25:33;;;;;;;8.50;1.30;;;;;;;15.39;32.46;99948.13;30607876;28;96959;-66
2023/03/15 10:40:54;;;;;;;4.60;1.27;;;;;;;19.16;28.20;99952.94;30605317;28;96817;-66
2023/03/15 10:56:13;;;;;;;5.27;1.20;;;;;;;14.68;32.54;99969.13;30606454;28;97340;-66
2023/03/15 11:11:14;;;;;;;5.40;1.50;;;;;;;13.97;32.13;99966.75;30616198;28;96935;-65
2023/03/15 11:26:18;;;;;;;2.50;0.85;;;;;;;13.00;32.05;99958.44;30624958;28;97224;-70
2023/03/15 11:41:51;;;;;;;2.47;1.27;;;;;;;19.64;24.01;99975.38;30621465;28;96817;-67
2023/03/15 11:56:55;;;;;;;3.60;1.20;;;;;;;13.69;29.03;99975.66;30620832;28;96825;-65
2023/03/15 12:11:58;;;;;;;8.77;1.20;;;;;;;12.26;32.09;99972.84;30614653;28;97206;-68
2023/03/15 12:27:04;;;;;;;5.83;1.30;;;;;;;11.84;32.11;99965.28;30614318;28;97149;-75
2023/03/15 12:42:04;;;;;;;5.63;1.60;;;;;;;13.34;30.25;99971.06;30610720;28;96648;-63
2023/03/15 12:57:08;;;;;;;4.43;1.20;;;;;;;14.02;29.40;99975.03;30610877;28;97507;-63
2023/03/15 13:12:15;;;;;;;5.57;1.60;;;;;;;11.12;32.34;99995.97;30603961;28;97040;-62
2023/03/15 13:27:38;;;;;;;3.87;1.20;;;;;;;12.72;30.56;99996.59;30596147;28;97209;-63
2023/03/15 13:42:40;;;;;;;4.27;1.13;;;;;;;13.10;30.50;100030.31;30568384;28;97447;-64
2023/03/15 13:57:40;;;;;;;7.63;1.63;;;;;;;12.55;31.89;100028.06;30598214;28;97377;-65
2023/03/15 14:12:42;;;;;;;8.48;1.67;;;;;;;11.29;33.31;100050.00;30638253;28;97314;-64
2023/03/15 14:27:43;;;;;;;8.50;2.40;;;;;;;10.68;35.08;100041.91;30651139;28;97331;-63
2023/03/15 14:42:44;;;;;;;9.85;2.03;;;;;;;12.59;33.00;100048.06;30669195;28;96836;-63
2023/03/15 14:57:44;;;;;;;5.75;2.13;;;;;;;11.31;34.56;100047.97;30681255;28;97225;-64
2023/03/15 15:12:45;;;;;;;7.00;1.63;;;;;;;11.94;35.38;100052.28;30670785;28;97584;-65
2023/03/15 15:27:46;;;;;;;6.57;1.90;;;;;;;11.30;37.09;100085.50;30669787;28;97317;-65
2023/03/15 15:42:47;;;;;;;7.37;2.57;;;;;;;9.19;40.93;100104.31;30676557;28;97037;-64
2023/03/15 15:57:48;;;;;;;8.02;2.30;;;;;;;7.61;44.33;100102.66;30664042;28;97484;-65
2023/03/15 16:12:50;;;;;;;8.67;2.43;;;;;;;6.51;46.59;100109.78;30642045;28;96821;-64
2023/03/15 16:27:53;;;;;;;4.93;2.10;;;;;;;5.60;47.44;100139.31;30645714;28;97446;-66
2023/03/15 16:42:55;;;;;;;5.47;2.70;;;;;;;4.74;48.83;100159.19;30606544;28;98036;-66
2023/03/15 16:57:56;;;;;;;7.00;2.45;;;;;;;3.97;50.93;100173.59;30592869;28;97285;-62
2023/03/15 17:12:59;;;;;;;6.68;3.40;;;;;;;3.34;53.32;100199.84;30571621;28;96792;-63
2023/03/15 17:28:00;;;;;;;9.00;3.67;;;;;;;2.84;54.91;100216.88;30600433;28;97296;-63
2023/03/15 17:43:02;;;;;;;9.43;2.78;;;;;;;2.48;56.23;100229.28;30599951;28;97482;-64
2023/03/15 17:58:09;;;;;;;7.88;3.50;;;;;;;2.24;57.37;100245.09;30598992;28;97322;-65
2023/03/15 18:13:16;;;;;;;7.95;4.40;;;;;;;2.02;58.22;100257.25;30626962;28;97233;-66
2023/03/15 18:28:16;;;;;;;15.38;5.07;;;;;;;1.79;59.09;100268.56;30752005;28;96707;-64
2023/03/15 18:43:17;;;;;;;8.02;3.78;;;;;;;1.63;60.15;100279.38;30729738;28;96888;-67
2023/03/15 18:58:17;;;;;;;7.53;4.68;;;;;;;1.41;60.84;100296.66;30627215;28;96633;-66
2023/03/15 19:13:18;;;;;;;8.43;4.60;;;;;;;1.29;61.48;100314.09;30624329;28;96630;-64
2023/03/15 19:28:18;;;;;;;12.48;4.97;;;;;;;1.17;62.15;100341.19;30622253;28;96823;-64
2023/03/15 19:43:18;;;;;;;10.65;5.97;;;;;;;1.14;63.00;100357.16;30620282;28;96633;-64
2023/03/15 19:58:19;;;;;;;13.73;6.03;;;;;;;1.15;62.71;100370.16;30620705;28;96756;-64
2023/03/15 20:13:19;;;;;;;13.43;5.40;;;;;;;0.96;63.58;100396.81;30620609;28;97273;-64
2023/03/15 20:28:19;;;;;;;10.15;5.88;;;;;;;0.84;63.67;100390.59;30620676;28;96616;-64
2023/03/15 20:43:20;;;;;;;10.02;5.45;;;;;;;0.64;64.30;100407.69;30613079;28;96687;-64
2023/03/15 20:58:21;;;;;;;15.07;7.70;;;;;;;0.54;64.68;100416.25;30605700;28;97009;-63
2023/03/15 21:13:22;;;;;;;16.60;7.93;;;;;;;0.38;65.20;100435.56;30604576;28;97294;-63
2023/03/15 21:28:22;;;;;;;20.88;8.90;;;;;;;0.08;65.19;100460.19;30602298;28;97751;-64
2023/03/15 21:43:24;;;;;;;18.90;9.02;;;;;;;-0.14;66.24;100472.91;30644015;28;98434;-67
2023/03/15 21:58:26;;;;;;;20.73;9.85;;;;;;;-0.27;66.68;100480.69;30731655;28;97156;-65
2023/03/15 22:13:26;;;;;;;17.20;8.48;;;;;;;-0.42;67.10;100495.53;30731494;28;97406;-65
2023/03/15 22:28:26;;;;;;;17.48;9.00;;;;;;;-0.56;67.53;100507.66;30635197;28;96914;-64
2023/03/15 22:43:27;;;;;;;20.00;9.57;;;;;;;-0.61;67.81;100514.13;30609288;28;96668;-64
2023/03/15 22:58:27;;;;;;;15.25;8.88;;;;;;;-0.72;68.46;100504.28;30610807;28;96728;-64
2023/03/15 23:13:28;;;;;;;24.88;10.45;;;;;;;-0.84;68.63;100518.06;30628568;28;96677;-64
2023/03/15 23:28:29;;;;;;;16.98;9.18;;;;;;;-1.04;69.46;100530.50;30626152;28;97583;-65
2023/03/15 23:43:30;;;;;;;18.02;9.70;;;;;;;-1.10;69.94;100552.59;30624708;28;97144;-65
2023/03/15 23:58:31;;;;;;;17.25;9.63;;;;;;;-1.14;70.30;100547.66;30624358;28;96888;-65
